Time;durP1;ratioP1;P1;durP2;ratioP2;P2;SDS_P1;SDS_P2;PMS_P1;PMS_P2;Temp;Humidity;BMP_temperature;BMP_pressure;BME280_temperature;BME280_humidity;BME280_pressure;Samples;Min_cycle;Max_cycle;Signal;HPM_P1;HPM_P2
2022/07/23 00:00:09;;;;;;;3.10;2.80;;;;;;;;;;5091181;28;20457;-70
2022/07/23 00:02:36;;;;;;;3.43;3.10;;;;;;;;;;5091203;28;20531;-71
2022/07/23 00:05:03;;;;;;;4.90;2.73;;;;;;;;;;5093840;28;20456;-71
2022/07/23 00:07:32;;;;;;;2.70;2.50;;;;;;;;;;5101547;28;20977;-71
2022/07/23 00:09:59;;;;;;;3.50;3.20;;;;;;;;;;5091452;28;20455;-71
2022/07/23 00:12:26;;;;;;;3.80;2.70;;;;;;;;;;5091744;28;20531;-70
2022/07/23 00:14:54;;;;;;;3.23;2.80;;;;;;;;;;5091131;28;20583;-71
2022/07/23 00:17:21;;;;;;;3.20;2.50;;;;;;;;;;5091310;28;20455;-71
2022/07/23 00:19:48;;;;;;;3.00;2.70;;;;;;;;;;5090699;28;20444;-71
2022/07/23 00:22:15;;;;;;;3.17;2.87;;;;;;;;;;5091157;28;20448;-71
2022/07/23 00:24:44;;;;;;;3.20;2.87;;;;;;;;;;5090578;28;20449;-71
2022/07/23 00:27:11;;;;;;;2.80;2.60;;;;;;;;;;5091225;28;20445;-71
2022/07/23 00:29:38;;;;;;;3.23;2.63;;;;;;;;;;5090241;28;20539;-71
2022/07/23 00:32:05;;;;;;;3.97;3.07;;;;;;;;;;5091294;28;20449;-70
2022/07/23 00:34:33;;;;;;;3.23;2.80;;;;;;;;;;5089677;28;21026;-71
2022/07/23 00:37:00;;;;;;;3.30;2.93;;;;;;;;;;5094052;28;21019;-71
2022/07/23 00:39:27;;;;;;;2.67;2.30;;;;;;;;;;5091002;28;20452;-71
2022/07/23 00:41:55;;;;;;;3.20;2.70;;;30.40;1.00;;;;;;5090645;28;20527;-70
2022/07/23 00:44:24;;;;;;;2.73;2.53;;;24.00;46.00;;;;;;5091163;28;20457;-72
2022/07/23 00:46:53;;;;;;;2.80;2.53;;;23.50;99.90;;;;;;5090578;28;21163;-71
2022/07/23 00:49:21;;;;;;;3.40;2.60;;;23.10;99.90;;;;;;5090750;28;20452;-71
2022/07/23 00:51:49;;;;;;;4.30;2.93;;;23.10;99.90;;;;;;5089959;28;20919;-71
2022/07/23 00:54:16;;;;;;;3.20;2.90;;;23.00;99.90;;;;;;5090974;28;20531;-71
2022/07/23 00:56:44;;;;;;;2.80;2.60;;;22.90;99.90;;;;;;5090151;28;20450;-71
2022/07/23 00:59:13;;;;;;;2.70;2.47;;;22.80;99.90;;;;;;5090695;28;20552;-72
2022/07/23 01:01:40;;;;;;;3.00;2.70;;;22.70;99.90;;;;;;5090036;28;20487;-71
2022/07/23 01:04:07;;;;;;;2.97;2.67;;;22.60;99.90;;;;;;5090745;28;20449;-71
2022/07/23 01:06:37;;;;;;;3.30;2.80;;;22.70;99.90;;;;;;5101579;28;20441;-71
2022/07/23 01:09:05;;;;;;;3.27;2.97;;;22.80;99.90;;;;;;5090716;28;20809;-71
2022/07/23 01:11:33;;;;;;;2.93;2.63;;;22.80;99.90;;;;;;5090270;28;20455;-71
2022/07/23 01:14:08;;;;;;;2.73;2.37;;;22.80;99.90;;;;;;5091122;28;20451;-71
2022/07/23 01:16:36;;;;;;;3.30;2.57;;;22.70;1.00;;;;;;5090454;28;20440;-71
2022/07/23 01:19:04;;;;;;;2.50;2.30;;;22.80;99.90;;;;;;5090066;28;20445;-71
2022/07/23 01:21:32;;;;;;;2.90;2.60;;;22.90;1.00;;;;;;5090832;28;20453;-71
2022/07/23 01:24:00;;;;;;;3.13;2.70;;;22.90;99.90;;;;;;5090943;28;20544;-71
2022/07/23 01:26:27;;;;;;;3.10;2.80;;;22.90;99.90;;;;;;5090447;28;20536;-71
2022/07/23 01:28:54;;;;;;;2.50;2.27;;;22.90;99.90;;;;;;5090293;28;20480;-71
2022/07/23 01:31:20;;;;;;;3.10;2.80;;;22.90;99.90;;;;;;5090307;28;20451;-71
2022/07/23 01:33:47;;;;;;;2.90;2.70;;;22.90;99.90;;;;;;5090309;28;20592;-71
2022/07/23 01:36:14;;;;;;;3.47;2.80;;;22.90;99.90;;;;;;5093376;28;20560;-71
2022/07/23 01:38:41;;;;;;;2.60;2.40;;;23.00;99.90;;;;;;5090245;28;20527;-71
2022/07/23 01:41:09;;;;;;;3.20;2.90;;;23.10;99.90;;;;;;5090447;28;20475;-71
2022/07/23 01:43:36;;;;;;;3.23;2.80;;;23.10;99.90;;;;;;5090046;28;20441;-70
2022/07/23 01:46:03;;;;;;;2.70;2.50;;;22.90;99.90;;;;;;5093262;28;20455;-72
2022/07/23 01:48:30;;;;;;;2.70;2.50;;;22.70;99.90;;;;;;5094553;28;20448;-71
2022/07/23 01:50:57;;;;;;;3.10;2.43;;;22.60;1.00;;;;;;5094106;28;20448;-71
2022/07/23 01:53:24;;;;;;;2.90;2.67;;;22.50;1.00;;;;;;5094287;28;20480;-70
2022/07/23 01:55:51;;;;;;;3.73;3.00;;;22.50;1.00;;;;;;5093872;28;20835;-71
2022/07/23 01:58:19;;;;;;;3.17;2.60;;;22.50;1.00;;;;;;5093990;28;20441;-71
2022/07/23 02:00:46;;;;;;;3.03;2.70;;;22.50;1.00;;;;;;5093077;28;20524;-70
2022/07/23 02:03:13;;;;;;;2.97;2.73;;;22.40;1.00;;;;;;5093841;28;20491;-71
2022/07/23 02:05:39;;;;;;;2.43;2.07;;;22.40;99.90;;;;;;5100629;28;20566;-70
2022/07/23 02:08:09;;;;;;;3.83;2.50;;;22.40;99.90;;;;;;5097905;28;20544;-71
2022/07/23 02:10:36;;;;;;;3.30;2.20;;;;;;;;;;5093032;28;20446;-71
2022/07/23 02:13:03;;;;;;;2.57;2.37;;;;;;;;;;5093695;28;20958;-70
2022/07/23 02:15:32;;;;;;;2.47;2.27;;;;;;;;;;5094160;28;20506;-71
2022/07/23 02:17:59;;;;;;;3.07;2.83;;;;;;;;;;5094029;28;20447;-71
2022/07/23 02:20:27;;;;;;;2.60;2.40;;;;;;;;;;5093557;28;20469;-71
2022/07/23 02:22:54;;;;;;;3.50;2.77;;;;;;;;;;5092760;28;20453;-71
2022/07/23 02:25:21;;;;;;;3.87;3.00;;;;;;;;;;5093862;28;20527;-71
2022/07/23 02:27:48;;;;;;;2.80;2.50;;;;;;;;;;5092846;28;20441;-71
2022/07/23 02:30:15;;;;;;;3.50;2.97;;;;;;;;;;5093316;28;20543;-71
2022/07/23 02:32:44;;;;;;;3.03;2.83;;;;;;;;;;5092869;28;20452;-71
2022/07/23 02:35:11;;;;;;;4.17;2.40;;;;;;;;;;5096688;28;20643;-71
2022/07/23 02:37:38;;;;;;;3.30;3.00;;;;;;;;;;5092556;28;20445;-71
2022/07/23 02:40:06;;;;;;;4.30;3.10;;;;;;;;;;5093194;28;20441;-70
2022/07/23 02:42:33;;;;;;;2.87;2.57;;;;;;;;;;5092558;28;20455;-71
2022/07/23 02:45:00;;;;;;;4.67;3.57;;;;;;;;;;5093648;28;20484;-71
2022/07/23 02:47:27;;;;;;;3.07;2.53;;;;;;;;;;5093472;28;20452;-71
2022/07/23 02:49:56;;;;;;;2.90;2.50;;;;;;;;;;5092607;28;20871;-71
2022/07/23 02:52:23;;;;;;;2.90;2.60;;;;;;;;;;5092873;28;20452;-70
2022/07/23 02:54:50;;;;;;;3.43;3.13;;;;;;;;;;5092344;28;20484;-71
2022/07/23 02:57:17;;;;;;;3.43;2.67;;;;;;;;;;5092080;28;20455;-71
2022/07/23 02:59:44;;;;;;;3.60;3.30;;;;;;;;;;5092159;28;20451;-70
2022/07/23 03:02:11;;;;;;;3.23;2.67;;;;;;;;;;5093331;28;20445;-71
2022/07/23 03:04:38;;;;;;;2.80;2.60;;;;;;;;;;5092936;28;20487;-71
2022/07/23 03:07:07;;;;;;;4.37;2.47;;;;;;;;;;5104995;28;20448;-71
2022/07/23 03:09:34;;;;;;;5.47;2.70;;;;;;;;;;5091979;28;20445;-71
2022/07/23 03:12:01;;;;;;;3.83;2.60;;;;;;;;;;5092993;28;20455;-71
2022/07/23 03:14:28;;;;;;;3.13;2.73;;;;;;;;;;5092899;28;20857;-70
2022/07/23 03:16:56;;;;;;;3.13;2.67;;;;;;;;;;5092133;28;20519;-71
2022/07/23 03:19:23;;;;;;;2.87;2.60;;;;;;;;;;5092163;28;20927;-71
2022/07/23 03:21:50;;;;;;;3.00;2.47;;;;;;;;;;5091619;28;20445;-71
2022/07/23 03:24:18;;;;;;;3.00;2.63;;;;;;;;;;5092591;28;20445;-71
2022/07/23 03:26:46;;;;;;;2.97;2.40;;;;;;;;;;5091789;28;20455;-71
2022/07/23 03:29:13;;;;;;;4.03;2.77;;;;;;;;;;5091799;28;20966;-71
2022/07/23 03:31:40;;;;;;;3.80;2.80;;;;;;;;;;5092069;28;20452;-71
2022/07/23 03:34:07;;;;;;;3.20;2.67;;;;;;;;;;5092380;28;20826;-71
2022/07/23 03:36:34;;;;;;;3.13;2.83;;;;;;;;;;5094392;28;20484;-71
2022/07/23 03:39:01;;;;;;;3.50;2.87;;;;;;;;;;5092161;28;20569;-71
2022/07/23 03:41:30;;;;;;;3.23;2.93;;;;;;;;;;5092202;28;20449;-70
2022/07/23 03:43:57;;;;;;;3.03;2.73;;;;;;;;;;5092385;28;20460;-70
2022/07/23 03:46:24;;;;;;;3.50;3.20;;;;;;;;;;5091129;28;21886;-71
2022/07/23 03:48:51;;;;;;;3.73;2.83;;;;;;;;;;5090911;28;20963;-69
2022/07/23 03:51:18;;;;;;;2.77;2.47;;;;;;;;;;5095914;28;20441;-70
2022/07/23 03:53:46;;;;;;;2.73;2.43;;;;;;;;;;5092067;28;20453;-70
2022/07/23 03:56:13;;;;;;;3.63;2.93;;;;;;;;;;5095601;28;20472;-70
2022/07/23 03:58:41;;;;;;;3.90;3.00;;;;;;;;;;5092474;28;20477;-70
2022/07/23 04:01:09;;;;;;;2.83;2.40;;;;;;;;;;5094329;28;20444;-71
2022/07/23 04:03:36;;;;;;;4.03;2.93;;;;;;;;;;5093242;28;20894;-70
2022/07/23 04:06:03;;;;;;;3.17;2.63;;;;;;;;;;5097439;28;20997;-70
2022/07/23 04:08:30;;;;;;;3.07;2.87;;;;;;;;;;5093095;28;20971;-70
2022/07/23 04:10:57;;;;;;;3.20;2.90;;;;;;;;;;5097676;28;20992;-71
2022/07/23 04:13:25;;;;;;;3.27;2.97;;;;;;;;;;5091564;28;20520;-71
2022/07/23 04:15:53;;;;;;;3.77;2.90;;;;;;;;;;5091417;28;20850;-71
2022/07/23 04:18:21;;;;;;;3.57;3.00;;;;;;;;;;5101759;28;20535;-71
2022/07/23 04:20:49;;;;;;;4.10;2.60;;;;;;;;;;5094791;28;20448;-70
2022/07/23 04:23:16;;;;;;;2.80;2.47;;;;;;;;;;5093752;28;20833;-70
2022/07/23 04:25:43;;;;;;;3.33;3.03;;;;;;;;;;5096899;28;21046;-70
2022/07/23 04:28:11;;;;;;;3.23;2.90;;;;;;;;;;5093826;28;20506;-71
2022/07/23 04:30:38;;;;;;;3.97;3.37;;;;;;;;;;5097509;28;20455;-71
2022/07/23 04:33:06;;;;;;;3.33;3.03;;;;;;;;;;5099352;28;20456;-71
2022/07/23 04:35:34;;;;;;;5.40;3.43;;;;;;;;;;5092507;28;20540;-72
2022/07/23 04:38:01;;;;;;;4.60;3.60;;;;;;;;;;5091408;28;20452;-71
2022/07/23 04:40:29;;;;;;;4.30;3.70;;;;;;;;;;5092724;28;20448;-71
2022/07/23 04:42:57;;;;;;;4.73;3.30;;;;;;;;;;5095867;28;20453;-70
2022/07/23 04:45:24;;;;;;;2.77;2.47;;;;;;;;;;5093376;28;20948;-71
2022/07/23 04:47:52;;;;;;;3.30;2.93;;;;;;;;;;5090667;28;20627;-70
2022/07/23 04:50:22;;;;;;;3.97;2.93;;;;;;;;;;5090397;28;20535;-70
2022/07/23 04:52:49;;;;;;;4.93;3.60;;;;;;;;;;5090366;28;20457;-70
2022/07/23 04:55:16;;;;;;;3.33;3.03;;;;;;;;;;5091278;28;20530;-71
2022/07/23 04:57:43;;;;;;;3.30;2.97;;;;;;;;;;5090327;28;20540;-71
2022/07/23 05:00:11;;;;;;;4.30;3.23;;;;;;;;;;5090946;28;20532;-71
2022/07/23 05:02:38;;;;;;;4.13;3.03;;;;;;;;;;5097793;28;20462;-70
2022/07/23 05:05:06;;;;;;;3.50;2.90;;;;;;;;;;5102142;28;20456;-70
2022/07/23 05:07:34;;;;;;;3.90;3.03;;;;;;;;;;5094789;28;20610;-70
2022/07/23 05:10:01;;;;;;;4.83;2.87;;;;;;;;;;5090673;28;20449;-70
2022/07/23 05:12:29;;;;;;;3.03;2.73;;;;;;;;;;5091278;28;20528;-70
2022/07/23 05:14:56;;;;;;;3.50;3.20;;;;;;;;;;5096395;28;20448;-70
2022/07/23 05:17:23;;;;;;;3.90;3.00;;;;;;;;;;5097106;28;20491;-71
2022/07/23 05:19:50;;;;;;;3.73;3.43;;;;;;;;;;5095374;28;20490;-70
2022/07/23 05:22:17;;;;;;;3.53;2.77;;;;;;;;;;5105460;28;20446;-71
2022/07/23 05:24:46;;;;;;;3.47;3.17;;;;;;;;;;5097362;28;20448;-70
2022/07/23 05:27:13;;;;;;;2.83;2.53;;;;;;;;;;5095160;28;20540;-70
2022/07/23 05:29:40;;;;;;;3.07;2.80;;;;;;;;;;5096849;28;20432;-70
2022/07/23 05:32:07;;;;;;;3.40;3.00;;;;;;;;;;5108568;28;20455;-70
2022/07/23 05:34:34;;;;;;;3.27;2.97;;;;;;;;;;5095429;28;20571;-70
2022/07/23 05:37:02;;;;;;;3.27;2.97;;;;;;;;;;5096927;28;20480;-70
2022/07/23 05:39:29;;;;;;;5.67;3.40;;;;;;;;;;5081769;28;20860;-70
2022/07/23 05:41:57;;;;;;;3.07;2.73;;;;;;;;;;5096741;28;20449;-70
2022/07/23 05:44:24;;;;;;;3.00;2.70;;;;;;;;;;5097962;28;20444;-70
2022/07/23 05:46:52;;;;;;;2.80;2.60;;;;;;;;;;5099074;28;21200;-71
2022/07/23 05:49:19;;;;;;;3.40;3.10;;;;;;;;;;5095705;28;20456;-71
2022/07/23 05:51:46;;;;;;;5.03;3.80;;;;;;;;;;5093680;28;20444;-70
2022/07/23 05:54:13;;;;;;;4.20;3.27;;;;;;;;;;5095423;28;21033;-71
2022/07/23 05:56:40;;;;;;;5.47;3.70;;;;;;;;;;5094535;28;21047;-70
2022/07/23 05:59:09;;;;;;;3.63;3.07;;;;;;;;;;5105102;28;20472;-71
2022/07/23 06:01:36;;;;;;;3.50;2.97;;;;;;;;;;5105309;28;20457;-71
2022/07/23 06:04:03;;;;;;;3.63;3.23;;;;;;;;;;5096003;28;20543;-71
2022/07/23 06:06:30;;;;;;;3.80;3.20;;;;;;;;;;5108090;28;20448;-71
2022/07/23 06:08:57;;;;;;;3.47;2.70;;;;;;;;;;5099766;27;20539;-71
2022/07/23 06:11:24;;;;;;;4.70;3.53;;;;;;;;;;5098005;28;20540;-71
2022/07/23 06:13:52;;;;;;;4.10;3.20;;;;;;;;;;5102346;28;20901;-71
2022/07/23 06:16:20;;;;;;;3.10;2.83;;;;;;;;;;5095102;28;20476;-71
2022/07/23 06:18:47;;;;;;;4.07;3.40;;;;;;;;;;5097841;28;20444;-72
2022/07/23 06:21:14;;;;;;;3.70;3.40;;;;;;;;;;5097013;28;20531;-71
2022/07/23 06:23:41;;;;;;;3.50;3.20;;;;;;;;;;5096437;28;20489;-71
2022/07/23 06:26:09;;;;;;;5.00;3.43;;;;;;;;;;5094892;28;20449;-71
2022/07/23 06:28:36;;;;;;;3.00;2.70;;;;;;;;;;5093753;28;20445;-70
2022/07/23 06:31:03;;;;;;;4.10;3.70;;;;;;;;;;5098643;28;20831;-71
2022/07/23 06:33:32;;;;;;;4.17;3.20;;;;;;;;;;5098384;28;21066;-71
2022/07/23 06:35:59;;;;;;;3.23;2.70;;;;;;;;;;5093941;28;22340;-71
2022/07/23 06:38:26;;;;;;;3.60;3.20;;;;;;;;;;5093426;28;20802;-71
2022/07/23 06:40:53;;;;;;;3.73;3.40;;;;;;;;;;5096620;28;20539;-71
2022/07/23 06:43:20;;;;;;;4.40;4.00;;;;;;;;;;5094568;28;20457;-70
2022/07/23 06:45:47;;;;;;;3.67;3.20;;;;;;;;;;5093115;28;20869;-71
2022/07/23 06:48:15;;;;;;;3.43;3.13;;;;;;;;;;5093510;28;20449;-72
2022/07/23 06:50:43;;;;;;;3.30;2.90;;;;;;;;;;5102881;28;20449;-70
2022/07/23 06:53:10;;;;;;;3.90;3.50;;;;;;;;;;5101181;28;20919;-71
2022/07/23 06:55:38;;;;;;;3.50;3.20;;;;;;;;;;5099992;28;20969;-71
2022/07/23 06:58:05;;;;;;;3.50;3.10;;;;;;;;;;5091530;28;20524;-71
2022/07/23 07:00:32;;;;;;;3.57;3.10;;;;;;;;;;5089095;28;20456;-70
2022/07/23 07:03:00;;;;;;;3.90;3.60;;;;;;;;;;5092609;28;20467;-71
2022/07/23 07:05:27;;;;;;;3.90;3.60;;;;;;;;;;5098773;28;20440;-71
2022/07/23 07:07:55;;;;;;;3.33;2.90;;;;;;;;;;5093197;28;20529;-71
2022/07/23 07:10:23;;;;;;;3.80;3.17;;;;;;;;;;5093483;28;20475;-72
2022/07/23 07:12:50;;;;;;;3.93;3.60;;;;;;;;;;5093209;28;20449;-71
2022/07/23 07:15:17;;;;;;;3.80;3.50;;;;;;;;;;5092806;28;20452;-72
2022/07/23 07:17:44;;;;;;;4.00;3.53;;;;;;;;;;5092119;28;20833;-72
2022/07/23 07:20:12;;;;;;;3.50;3.17;;;;;;;;;;5092072;28;20842;-72
2022/07/23 07:22:39;;;;;;;3.43;3.13;;;;;;;;;;5092155;28;20444;-71
2022/07/23 07:25:08;;;;;;;3.93;3.57;;;;;;;;;;5092630;28;20452;-71
2022/07/23 07:27:35;;;;;;;3.37;2.97;;;;;;;;;;5091625;28;20460;-71
2022/07/23 07:30:03;;;;;;;4.30;3.80;;;;;;;;;;5091690;28;20551;-71
2022/07/23 07:32:32;;;;;;;3.37;3.07;;;;;;;;;;5092583;28;20441;-71
2022/07/23 07:34:59;;;;;;;3.73;3.43;;;;;;;;;;5093414;28;20472;-71
2022/07/23 07:37:26;;;;;;;3.77;3.40;;;;;;;;;;5100289;28;20589;-71
2022/07/23 07:39:53;;;;;;;4.07;3.50;;;;;;;;;;5091780;28;20540;-71
2022/07/23 07:42:22;;;;;;;3.20;2.90;;;;;;;;;;5093152;28;20457;-71
2022/07/23 07:44:49;;;;;;;5.70;3.60;;;;;;;;;;5091984;28;20444;-71
2022/07/23 07:47:16;;;;;;;3.67;3.30;;;;;;;;;;5099048;28;20441;-71
2022/07/23 07:49:43;;;;;;;4.47;3.50;;;;;;;;;;5092388;28;20955;-71
2022/07/23 07:52:10;;;;;;;4.30;2.90;;;;;;;;;;5092136;28;20872;-71
2022/07/23 07:54:38;;;;;;;3.63;3.30;;;;;;;;;;5097244;28;20448;-71
2022/07/23 07:57:05;;;;;;;4.30;3.67;;;;;;;;;;5095887;28;20850;-72
2022/07/23 07:59:33;;;;;;;4.33;3.40;;;;;;;;;;5099044;28;20970;-70
2022/07/23 08:02:00;;;;;;;5.00;3.70;;;;;;;;;;5092485;28;20819;-71
2022/07/23 08:04:28;;;;;;;3.90;3.60;;;;;;;;;;5091861;28;20449;-72
2022/07/23 08:06:55;;;;;;;3.80;3.13;;;;;;;;;;5102480;28;20467;-71
2022/07/23 08:09:22;;;;;;;3.37;3.07;;;;;;;;;;5095391;28;20544;-71
2022/07/23 08:11:51;;;;;;;4.10;3.33;;;;;;;;;;5091135;28;20455;-71
2022/07/23 08:14:18;;;;;;;3.77;3.40;;;;;;;;;;5091877;28;20471;-72
2022/07/23 08:16:47;;;;;;;3.83;3.50;;;;;;;;;;5091171;28;20489;-71
2022/07/23 08:19:14;;;;;;;3.70;3.37;;;;;;;;;;5091982;28;20453;-72
2022/07/23 08:21:41;;;;;;;3.50;3.20;;;;;;;;;;5091120;28;20792;-71
2022/07/23 08:24:08;;;;;;;3.13;2.90;;;;;;;;;;5097156;28;20455;-71
2022/07/23 08:26:35;;;;;;;3.60;3.30;;;;;;;;;;5091207;28;20518;-71
2022/07/23 08:29:03;;;;;;;3.60;3.30;;;;;;;;;;5091398;28;20830;-71
2022/07/23 08:31:32;;;;;;;4.00;3.23;;;;;;;;;;5091521;28;20456;-71
2022/07/23 08:34:02;;;;;;;3.53;3.23;;;;;;;;;;5094790;28;20476;-72
2022/07/23 08:36:31;;;;;;;3.47;3.17;;;;;;;;;;5094251;28;20444;-72
2022/07/23 08:38:59;;;;;;;5.47;4.10;;;;;;;;;;5092278;28;20441;-71
2022/07/23 08:41:26;;;;;;;3.80;3.50;;;;;;;;;;5099825;28;20527;-71
2022/07/23 08:43:53;;;;;;;3.57;3.27;;;;;;;;;;5091939;28;20471;-71
2022/07/23 08:46:21;;;;;;;3.30;3.00;;;;;;;;;;5091399;28;20451;-72
2022/07/23 08:48:49;;;;;;;4.93;3.10;;;;;;;;;;5091464;28;20495;-71
2022/07/23 08:51:19;;;;;;;3.33;3.03;;;;;;;;;;5091370;28;20494;-71
2022/07/23 08:53:46;;;;;;;3.97;3.67;;;;;;;;;;5089690;28;20552;-71
2022/07/23 08:56:13;;;;;;;2.80;2.60;;;;;;;;;;5089969;28;20449;-71
2022/07/23 08:58:40;;;;;;;4.20;3.27;;;;;;;;;;5088471;28;20588;-72
2022/07/23 09:01:07;;;;;;;4.77;3.97;;;;;;;;;;5087038;28;20440;-71
2022/07/23 09:03:35;;;;;;;3.80;3.40;;;;;;;;;;5089852;28;20452;-71
2022/07/23 09:06:03;;;;;;;3.37;3.07;;;;;;;;;;5101860;28;20446;-71
2022/07/23 09:08:37;;;;;;;3.37;3.17;;;;;;;;;;5091618;28;20467;-72
2022/07/23 09:11:05;;;;;;;3.77;3.20;;;;;;;;;;5091116;28;20531;-72
2022/07/23 09:13:37;;;;;;;3.60;3.30;;;;;;;;;;5089776;28;20986;-71
2022/07/23 09:16:06;;;;;;;3.30;2.97;;;;;;;;;;5090678;28;20911;-72
2022/07/23 09:18:39;;;;;;;3.37;3.07;;;;;;;;;;5089929;28;20480;-71
2022/07/23 09:21:16;;;;;;;4.03;3.10;;;;;;;;;;5090401;28;20455;-72
2022/07/23 09:23:46;;;;;;;3.50;3.20;;;;;;;;;;5090113;28;20519;-72
2022/07/23 09:26:20;;;;;;;3.83;3.23;;;;;;;;;;5090523;28;20453;-73
2022/07/23 09:28:51;;;;;;;2.77;2.43;;;;;;;;;;5089474;28;20448;-72
2022/07/23 09:31:18;;;;;;;3.90;3.47;;;;;;;;;;5090096;28;20445;-72
2022/07/23 09:33:45;;;;;;;3.57;2.93;;;;;;;;;;5089733;28;20472;-73
2022/07/23 09:36:13;;;;;;;3.10;2.90;;;;;;;;;;5090974;28;20963;-71
2022/07/23 09:38:49;;;;;;;3.83;3.53;;;;;;;;;;5088604;28;20998;-71
2022/07/23 09:41:16;;;;;;;3.80;3.50;;;;;;;;;;5090240;28;20432;-71
2022/07/23 09:43:44;;;;;;;3.10;2.80;;;;;;;;;;5089816;28;20447;-70
2022/07/23 09:46:21;;;;;;;3.70;3.40;;;;;;;;;;5090271;28;20452;-70
2022/07/23 09:48:48;;;;;;;3.93;3.40;;;;;;;;;;5089426;28;20456;-70
2022/07/23 09:51:16;;;;;;;3.50;3.20;;;;;;;;;;5090673;28;20450;-70
2022/07/23 09:53:45;;;;;;;3.60;3.30;;;;;;;;;;5089922;28;20445;-71
2022/07/23 09:56:14;;;;;;;6.80;3.17;;;;;;;;;;5091026;28;20476;-71
2022/07/23 09:58:46;;;;;;;3.53;3.23;;;;;;;;;;5089016;28;20480;-71
2022/07/23 10:01:15;;;;;;;2.87;2.67;;;;;;;;;;5089024;28;20453;-71
2022/07/23 10:03:42;;;;;;;3.77;3.40;;;;;;;;;;5077469;28;20505;-69
2022/07/23 10:06:10;;;;;;;4.23;3.63;;;;;;;;;;5093374;28;20462;-72
2022/07/23 10:08:37;;;;;;;3.70;3.40;;;;;;;;;;5095730;28;20451;-72
2022/07/23 10:11:06;;;;;;;4.03;3.60;;;;;;;;;;5094466;28;20448;-71
2022/07/23 10:16:18;;;;;;;5.10;4.23;;;;;;;;;;5091800;28;20561;-70
2022/07/23 10:18:45;;;;;;;3.63;3.33;;;;;;;;;;5090801;28;20484;-70
2022/07/23 10:21:12;;;;;;;4.33;3.93;;;;;;;;;;5088931;28;20468;-70
2022/07/23 10:23:44;;;;;;;4.50;3.90;;;;;;;;;;5090420;28;20457;-70
2022/07/23 10:26:18;;;;;;;3.90;3.60;;;;;;;;;;5088467;28;20451;-70
2022/07/23 10:28:58;;;;;;;4.67;4.27;;;;;;;;;;5081640;28;21009;-70
2022/07/23 10:31:30;;;;;;;4.07;3.67;;;;;;;;;;5089638;28;20551;-70
2022/07/23 10:34:01;;;;;;;3.87;3.27;;;;;;;;;;5090855;28;20991;-70
2022/07/23 10:36:31;;;;;;;4.07;3.67;;;;;;;;;;5090769;28;20543;-70
2022/07/23 10:39:05;;;;;;;3.20;3.00;;;;;;;;;;5090137;28;21050;-70
2022/07/23 10:41:34;;;;;;;3.73;3.43;;;;;;;;;;5090196;28;20437;-70
2022/07/23 10:44:08;;;;;;;6.00;3.87;;;;;;;;;;5091184;28;20448;-70
2022/07/23 10:46:40;;;;;;;5.10;3.73;;;;;;;;;;5088938;28;20451;-70
2022/07/23 10:49:25;;;;;;;4.33;3.53;;;;;;;;;;5082732;28;20454;-70
2022/07/23 10:52:19;;;;;;;3.73;3.43;;;;;;;;;;5090286;28;20972;-70
2022/07/23 10:54:46;;;;;;;3.30;3.10;;;;;;;;;;5042867;28;20927;-70
2022/07/23 10:57:15;;;;;;;3.20;2.90;;;;;;;;;;5089839;28;20531;-70
2022/07/23 11:00:01;;;;;;;3.97;3.67;;;;;;;;;;5089528;28;20580;-71
2022/07/23 11:02:30;;;;;;;3.70;3.40;;;;;;;;;;5090142;28;20445;-70
2022/07/23 11:05:01;;;;;;;3.97;3.63;;;;;;;;;;5091566;28;20521;-71
2022/07/23 11:07:29;;;;;;;4.20;3.80;;;;;;;;;;5098709;28;20444;-70
2022/07/23 11:09:56;;;;;;;3.83;3.43;;;;;;;;;;5085286;28;20575;-70
2022/07/23 11:12:40;;;;;;;4.83;4.13;;;;;;;;;;5088424;28;20551;-70
2022/07/23 11:15:09;;;;;;;4.07;3.77;;;;;;;;;;5078076;28;20552;-70
2022/07/23 11:17:37;;;;;;;4.00;3.53;;;;;;;;;;5087386;28;20468;-70
2022/07/23 11:20:31;;;;;;;4.10;3.70;;;;;;;;;;5085427;28;20463;-69
2022/07/23 11:22:59;;;;;;;4.30;3.47;;;;;;;;;;5087705;28;20442;-71
2022/07/23 11:25:32;;;;;;;3.90;3.70;;;;;;;;;;5088311;28;20499;-71
2022/07/23 11:28:10;;;;;;;3.80;3.50;;;;;;;;;;5087598;28;20460;-70
2022/07/23 11:30:41;;;;;;;4.27;3.87;;;;;;;;;;5085041;28;20446;-71
2022/07/23 11:33:17;;;;;;;4.30;3.97;;;;;;;;;;5090061;28;20270;-71
2022/07/23 11:35:46;;;;;;;4.70;3.80;;;;;;;;;;5092051;28;20190;-71
2022/07/23 11:38:15;;;;;;;3.90;3.57;;;;;;;;;;5089321;28;20236;-71
2022/07/23 11:40:43;;;;;;;3.20;2.90;;;;;;;;;;5087629;28;20531;-71
2022/07/23 11:43:12;;;;;;;4.63;4.23;;;;;;;;;;5089265;28;20468;-69
2022/07/23 11:45:40;;;;;;;4.03;3.67;;;;;;;;;;5088984;28;20456;-70
2022/07/23 11:48:08;;;;;;;5.07;3.33;;;;;;;;;;5089111;28;20204;-71
2022/07/23 11:50:36;;;;;;;4.90;4.50;;;;;;;;;;5088515;28;20233;-69
2022/07/23 11:53:04;;;;;;;4.83;4.20;;;;;;;;;;5088493;28;20463;-69
2022/07/23 11:55:31;;;;;;;5.30;3.90;;;;;;;;;;5089491;28;20478;-68
2022/07/23 11:57:58;;;;;;;3.63;3.37;;;;;;;;;;5088903;28;20477;-69
2022/07/23 12:00:29;;;;;;;3.87;3.47;;;;;;;;;;5089191;28;20444;-69
2022/07/23 12:02:58;;;;;;;3.70;3.40;;;;;;;;;;5088722;28;20456;-69
2022/07/23 12:05:28;;;;;;;4.07;3.77;;;22.40;99.90;;;;;;5094725;28;20464;-69
2022/07/23 12:07:57;;;;;;;4.07;3.67;;;29.60;1.00;;;;;;5094721;28;21921;-70
2022/07/23 12:10:26;;;;;;;5.30;4.80;;;29.50;1.00;;;;;;5089127;28;20841;-69
2022/07/23 12:12:54;;;;;;;4.10;3.33;;;29.90;1.00;;;;;;5088349;28;20294;-69
2022/07/23 12:15:23;;;;;;;4.17;3.80;;;;;;;;;;5088716;28;20775;-70
2022/07/23 12:17:53;;;;;;;4.30;3.93;;;;;;;;;;5088170;28;20226;-68
2022/07/23 12:20:22;;;;;;;4.60;4.20;;;;;;;;;;5074890;28;20198;-69
2022/07/23 12:22:50;;;;;;;5.20;4.70;;;;;;;;;;5085938;28;20198;-69
2022/07/23 12:25:19;;;;;;;4.80;4.40;;;;;;;;;;5088283;28;20217;-70
2022/07/23 12:27:47;;;;;;;4.50;4.10;;;;;;;;;;5085190;28;20632;-69
2022/07/23 12:30:21;;;;;;;4.57;4.20;;;;;;;;;;5087394;28;20210;-70
2022/07/23 12:32:49;;;;;;;5.57;4.00;;;;;;;;;;5091668;28;20312;-69
2022/07/23 12:35:18;;;;;;;4.10;3.80;;;;;;;;;;5091484;28;20229;-71
2022/07/23 12:37:49;;;;;;;4.80;4.40;;;29.50;1.00;;;;;;5087800;28;20305;-71
2022/07/23 12:40:28;;;;;;;4.70;4.20;;;29.40;1.00;;;;;;5091057;28;20444;-70
2022/07/23 12:42:56;;;;;;;5.00;4.20;;;29.60;1.00;;;;;;5083119;28;20443;-70
2022/07/23 12:45:24;;;;;;;4.80;4.40;;;29.80;1.00;;;;;;5087892;28;20459;-70
2022/07/23 12:48:16;;;;;;;4.60;4.03;;;29.70;1.00;;;;;;5087754;28;20444;-70
2022/07/23 12:50:50;;;;;;;4.13;3.83;;;30.20;1.00;;;;;;5087884;28;20282;-71
2022/07/23 12:53:19;;;;;;;3.90;3.60;;;30.20;1.00;;;;;;5088462;28;20201;-71
2022/07/23 12:55:47;;;;;;;4.63;4.23;;;30.10;1.00;;;;;;5088183;28;20202;-69
2022/07/23 12:58:17;;;;;;;4.87;4.47;;;30.40;1.00;;;;;;5088066;28;20225;-69
2022/07/23 13:01:02;;;;;;;4.00;3.60;;;30.20;1.00;;;;;;5087846;28;20680;-69
2022/07/23 13:03:35;;;;;;;5.37;4.87;;;30.40;1.00;;;;;;5088438;28;20202;-71
2022/07/23 13:06:05;;;;;;;4.00;3.70;;;30.30;1.00;;;;;;5091150;28;20198;-69
2022/07/23 13:08:34;;;;;;;4.78;4.38;;;30.20;1.00;;;;;;5086972;28;20212;-70
2022/07/23 13:11:02;;;;;;;6.20;4.60;;;30.00;1.00;;;;;;5088323;28;20324;-70
2022/07/23 13:13:33;;;;;;;4.03;3.70;;;30.30;1.00;;;;;;5088088;28;20202;-69
2022/07/23 13:16:00;;;;;;;4.72;4.40;;;30.70;1.00;;;;;;5083297;28;20280;-70
2022/07/23 13:18:28;;;;;;;4.00;3.70;;;30.30;1.00;;;;;;5087844;28;20700;-70
2022/07/23 13:20:55;;;;;;;3.63;3.33;;;30.30;1.00;;;;;;5085726;28;20569;-70
2022/07/23 13:23:24;;;;;;;3.93;3.63;;;30.10;1.00;;;;;;5083434;28;20190;-70
2022/07/23 13:25:52;;;;;;;4.33;4.03;;;30.60;1.00;;;;;;5087473;28;20198;-70
2022/07/23 13:28:20;;;;;;;4.50;4.10;;;30.60;1.00;;;;;;5088278;28;20209;-69
2022/07/23 13:30:49;;;;;;;4.43;4.03;;;31.10;1.00;;;;;;5087800;28;21048;-69
2022/07/23 13:33:16;;;;;;;4.60;4.30;;;31.00;1.00;;;;;;5087597;28;20201;-69
2022/07/23 13:35:44;;;;;;;4.40;4.10;;;30.90;1.00;;;;;;5089381;28;20190;-69
2022/07/23 13:38:11;;;;;;;4.50;4.10;;;30.70;1.00;;;;;;5087214;28;20553;-68
2022/07/23 13:40:43;;;;;;;4.53;4.10;;;30.90;1.00;;;;;;5087658;28;20205;-69
2022/07/23 13:43:10;;;;;;;4.53;4.10;;;30.90;1.00;;;;;;5091620;28;20205;-69
2022/07/23 13:45:37;;;;;;;4.90;4.50;;;30.70;1.00;;;;;;5090552;28;20194;-69
2022/07/23 13:48:05;;;;;;;4.67;4.27;;;30.80;1.00;;;;;;5091928;28;20206;-69
2022/07/23 13:50:32;;;;;;;4.50;4.10;;;30.60;1.00;;;;;;5090709;28;20203;-69
2022/07/23 13:53:02;;;;;;;4.97;4.67;;;31.10;1.00;;;;;;5090968;28;20277;-69
2022/07/23 13:55:29;;;;;;;4.83;4.37;;;31.30;1.00;;;;;;5092328;28;20293;-69
2022/07/23 13:57:57;;;;;;;4.53;4.13;;;;;;;;;;5091171;28;20287;-69
2022/07/23 14:00:25;;;;;;;4.97;4.47;;;;;;;;;;5090749;28;20222;-69
2022/07/23 14:02:52;;;;;;;5.63;4.40;;;;;;;;;;5090733;28;20247;-70
2022/07/23 14:05:19;;;;;;;4.93;4.53;;;;;;;;;;5093652;28;20289;-69
2022/07/23 14:07:49;;;;;;;4.77;4.37;;;;;;;;;;5089677;28;20289;-72
2022/07/23 14:10:17;;;;;;;4.80;4.00;;;;;;;;;;5090350;28;20214;-68
2022/07/23 14:12:44;;;;;;;4.90;4.40;;;;;;;;;;5091318;28;20209;-69
2022/07/23 14:15:13;;;;;;;4.93;4.43;;;31.70;1.00;;;;;;5091938;28;20198;-69
2022/07/23 14:17:41;;;;;;;4.80;4.40;;;31.80;1.00;;;;;;5090975;28;20226;-69
2022/07/23 14:20:10;;;;;;;4.67;4.37;;;31.30;1.00;;;;;;5088625;28;20229;-70
2022/07/23 14:22:37;;;;;;;4.67;4.27;;;31.50;1.00;;;;;;5090674;28;20289;-70
2022/07/23 14:25:05;;;;;;;4.60;4.20;;;31.70;1.00;;;;;;5089781;28;20276;-69